Aérodrome :
LOGIN :

S'inscrire | Disclaimer

   EN    FR    IT 

 










Légende :    VFR   VFR Marginal   IFR   IFR Intensif   IFR Très Intensif
Visi : 
Plafond : 
>= 8 km
>= 3000ft
5 à 8 km
1000 à 3000 ft
1500m à 5 km
500 à 1000 ft
800 à 1500m
200 à 500 ft
< 800m
< 200 ft
Symboles :   Orages  Brouillard  Fortes neiges  Fortes précipitations  Vent > 20 kt
SIGMETs :   Divers  Orages  Givrage  Turbulence  Onde Orograph.  Cendres Volcan.







- Altitude de l'aérodrome : 3 ft
- Code IATA : DHR


EHKD - Den Helder De Kooy

DERNIER METAR :
  • 161655Z AUTO 23007KT 190V260 9999 OVC170 20/16 Q1019 BLU 24007KT 9999 FEW025 BKN200

METARs EXPIRÉS :
  • 161625Z AUTO 25008KT 220V280 9999 FEW100 OVC190 20/16 Q1019 BLU 24007KT 9999 FEW025 BKN200
  • 161555Z AUTO 24006KT 210V270 9999 FEW140 OVC190 20/16 Q1019 BLU 24007KT 9999 FEW025 BKN200
  • 161525Z AUTO 25009KT 210V290 9999 FEW037 SCT055 21/17 Q1019 BLU 24007KT 9999 FEW025 BKN200
  • 161455Z AUTO 24008KT 210V280 9999 BKN180 21/17 Q1019 BLU 24007KT 9999 FEW025 BKN200
  • 161431Z AUTO 25006KT 220V290 9999 SCT026 BKN029 BKN040 20/17 Q1019 BLU 24007KT 9999 SCT026 BKN045
  • 161427Z AUTO 25006KT 220V290 9999 SCT024/// BKN027/// BKN062/// 20/17 Q1019 WHT 24007KT 9999 SCT026 BKN045

TAF TAF EHKD
Valide du 16 à 17h jusqu'au 17 à 05h UTC


161651Z 1617/1705 25008KT CAVOK
BECMG 1617/1619 20007KT
BECMG 1623/1701 16010KT
Pas de NOTAMs connus pour ce terrain.



MET'MAP, la Météo Aéronautique d'un coup d'oeil ! - Copyright ORBIFLY Décembre 2007 - Disclaimer

ORBIFLY MET'MAP TEAM :

Programmation & Développement : Alexandra Zaïnal
Conception & Développement : Baudouin d'Aumeries
Co-Programmation & Développement : Marc-Olivier Méhu
Soutien technique & logistique : Manuel Goepfert

Contact : metmap@orbifly.com




SOURCES & CREDITS :

   NOAA